Terminal Aerodrome Forecast
Issued by NWS

Home | Current Version | Previous Version | Text Only | Print | Product List | Glossary On
Versions: 1 2 3 4 5 6 7 8 9 10 11 12 13 14 15 16 17 18 19 20 21
000
FTUS41 KBOX 190551 AAA
TAFHYA
TAF AMD
KHYA 190551Z 1906/2006 00000KT 1/4SM FG VV004
     FM191200 20005KT 4SM BR FEW008 FEW250
     FM191300 21007KT P6SM FEW008 FEW250
     FM191500 21010G18KT P6SM FEW250
     FM192100 22013G26KT P6SM SKC=

USA.gov is the U.S. government's official web portal to all federal, state and local government web resources and services.